MSC Brunella — H3CT — position and weather

sailwx.info

Track history (hours):
 
Tides and Currents Weather Stations Pressure Air Temp Water Temp Dewpoint Dewpoint Depression Visibility Wind Speed Wind Dir Waves Ship Positions

MSC Brunella

Last reported at 2018-Jun-22 05:58 UTC. Time now 2018-Jun-22 07:46 UTC.
Position S 23°55' W 046°21'.

Length 301 m; draft 10.7 m.

Type: Ship (hazmat cat D). MMSI: 374361000.

Date/timePositionNaut miles runAvg speedWind from/ knotsBaromVisibWave heightAir tempDewpointWater temp
2018-Jun-22 05:58S 23°55' W 046°21'0 0.0
2018-Jun-22 02:55S 23°55' W 046°21'0 0.0
2018-Jun-22 02:22S 23°55' W 046°21'0 0.0
2018-Jun-21 06:07S 23°55' W 046°21'5 4.3
2018-Jun-21 04:54S 23°59' W 046°18'3 7.3
2018-Jun-21 04:30S 24°01' W 046°20'510.4
2018-Jun-21 03:59S 24°06' W 046°22'510.9
2018-Jun-21 03:30S 24°11' W 046°22'610.7
2018-Jun-21 02:59S 24°17' W 046°23'510.9
2018-Jun-21 02:30S 24°22' W 046°23'510.8
2018-Jun-21 02:00S 24°27' W 046°23'0 0.6
2018-Jun-21 01:30S 24°27' W 046°23'0 0.2
2018-Jun-21 00:53S 24°27' W 046°23'0 0.2
2018-Jun-21 00:30S 24°27' W 046°23'0 0.3
2018-Jun-21 00:00S 24°28' W 046°23'0 0.7
2018-Jun-20 23:30S 24°28' W 046°23'2 4.7
2018-Jun-20 22:59S 24°30' W 046°23'4 7.0
2018-Jun-20 22:27S 24°33' W 046°25'4 8.8
2018-Jun-20 22:00S 24°34' W 046°30'7 9.2
2018-Jun-20 21:14S 24°36' W 046°37'517.9
2018-Jun-20 20:57S 24°39' W 046°41'817.6
2018-Jun-20 20:30S 24°45' W 046°48'  
Track history (hours):
 
Tides and Currents Weather Stations Pressure Air Temp Water Temp Dewpoint Dewpoint Depression Visibility Wind Speed Wind Dir Waves Ship Positions

MSC Brunella

Last reported at 2018-Jun-22 05:58 UTC. Time now 2018-Jun-22 07:46 UTC.
Position S 23°55' W 046°21'.

Length 301 m; draft 10.7 m.

Type: Ship (hazmat cat D). MMSI: 374361000.

Date/timePositionNaut miles runAvg speedWind from/ knotsBaromVisibWave heightAir tempDewpointWater temp
2018-Jun-22 05:58S 23°55' W 046°21'0 0.0
2018-Jun-22 02:55S 23°55' W 046°21'0 0.0
2018-Jun-22 02:22S 23°55' W 046°21'0 0.0
2018-Jun-21 06:07S 23°55' W 046°21'5 4.3
2018-Jun-21 04:54S 23°59' W 046°18'3 7.3
2018-Jun-21 04:30S 24°01' W 046°20'510.4
2018-Jun-21 03:59S 24°06' W 046°22'510.9
2018-Jun-21 03:30S 24°11' W 046°22'610.7
2018-Jun-21 02:59S 24°17' W 046°23'510.9
2018-Jun-21 02:30S 24°22' W 046°23'510.8
2018-Jun-21 02:00S 24°27' W 046°23'0 0.6
2018-Jun-21 01:30S 24°27' W 046°23'0 0.2
2018-Jun-21 00:53S 24°27' W 046°23'0 0.2
2018-Jun-21 00:30S 24°27' W 046°23'0 0.3
2018-Jun-21 00:00S 24°28' W 046°23'0 0.7
2018-Jun-20 23:30S 24°28' W 046°23'2 4.7
2018-Jun-20 22:59S 24°30' W 046°23'4 7.0
2018-Jun-20 22:27S 24°33' W 046°25'4 8.8
2018-Jun-20 22:00S 24°34' W 046°30'7 9.2
2018-Jun-20 21:14S 24°36' W 046°37'517.9
2018-Jun-20 20:57S 24°39' W 046°41'817.6
2018-Jun-20 20:30S 24°45' W 046°48'  

Dump ship's entire track history